createdAt,value
2017-07-09T00:00:07.272Z,4.00
2017-07-09T00:02:35.499Z,4.63
2017-07-09T00:05:02.938Z,4.13
2017-07-09T00:07:30.388Z,3.83
2017-07-09T00:09:57.823Z,4.10
2017-07-09T00:12:26.040Z,3.50
2017-07-09T00:14:53.489Z,4.70
2017-07-09T00:17:20.949Z,3.60
2017-07-09T00:19:48.405Z,4.30
2017-07-09T00:22:15.860Z,4.57
2017-07-09T00:24:43.301Z,3.73
2017-07-09T00:27:10.748Z,3.80
2017-07-09T00:29:38.192Z,3.60
2017-07-09T00:32:06.409Z,4.23
2017-07-09T00:34:33.865Z,4.10
2017-07-09T00:37:01.313Z,4.47
2017-07-09T00:39:28.744Z,4.47
2017-07-09T00:41:56.195Z,4.23
2017-07-09T00:44:24.409Z,5.20
2017-07-09T00:46:51.853Z,4.80
2017-07-09T00:49:19.305Z,5.50
2017-07-09T00:51:46.745Z,5.07
2017-07-09T00:54:14.957Z,4.40
2017-07-09T00:56:42.402Z,4.33
2017-07-09T00:59:09.865Z,4.67
2017-07-09T01:01:37.317Z,4.67
2017-07-09T01:04:04.763Z,4.30
2017-07-09T01:06:32.199Z,4.63
2017-07-09T01:09:00.416Z,4.43
2017-07-09T01:11:27.865Z,4.33
2017-07-09T01:13:55.308Z,5.07
2017-07-09T01:16:22.770Z,5.23
2017-07-09T01:18:50.204Z,4.80
2017-07-09T01:21:18.423Z,5.50
2017-07-09T01:23:45.868Z,4.80
2017-07-09T01:26:13.323Z,6.23
2017-07-09T01:28:40.768Z,5.43
2017-07-09T01:31:08.219Z,5.57
2017-07-09T01:33:35.660Z,5.70
2017-07-09T01:36:03.876Z,5.20
2017-07-09T01:38:31.317Z,4.80
2017-07-09T01:40:58.764Z,4.60
2017-07-09T01:43:26.204Z,5.00
2017-07-09T01:45:54.429Z,5.70
2017-07-09T01:48:21.877Z,5.30
2017-07-09T01:50:49.328Z,4.93
2017-07-09T01:53:16.768Z,4.90
2017-07-09T01:55:44.225Z,5.30
2017-07-09T01:58:11.669Z,5.93
2017-07-09T02:00:39.108Z,5.10
2017-07-09T02:03:07.332Z,4.37
2017-07-09T02:05:34.777Z,4.77
2017-07-09T02:08:02.227Z,4.77
2017-07-09T02:10:29.675Z,4.90
2017-07-09T02:12:57.128Z,4.87
2017-07-09T02:15:24.565Z,5.73
2017-07-09T02:17:52.020Z,5.00
2017-07-09T02:20:19.464Z,4.63
2017-07-09T02:22:46.915Z,5.43
2017-07-09T02:25:14.351Z,5.40
2017-07-09T02:27:41.804Z,5.93
2017-07-09T02:30:09.251Z,6.00
2017-07-09T02:32:36.699Z,5.70
2017-07-09T02:35:04.140Z,5.57
2017-07-09T02:37:31.596Z,5.17
2017-07-09T02:39:59.037Z,5.80
2017-07-09T02:42:26.472Z,5.23
2017-07-09T02:44:53.921Z,5.30
2017-07-09T02:47:21.375Z,5.50
2017-07-09T02:49:48.832Z,5.30
2017-07-09T02:52:16.269Z,5.10
2017-07-09T02:54:43.721Z,5.07
2017-07-09T02:57:11.152Z,5.20
2017-07-09T02:59:38.616Z,4.90
2017-07-09T03:02:06.056Z,5.23
2017-07-09T03:04:34.280Z,6.10
2017-07-09T03:07:01.712Z,5.37
2017-07-09T03:09:29.159Z,5.60
2017-07-09T03:11:56.599Z,6.70
2017-07-09T03:14:24.825Z,5.50
2017-07-09T03:16:52.257Z,5.10
2017-07-09T03:19:19.696Z,5.50
2017-07-09T03:21:47.144Z,5.80
2017-07-09T03:24:15.356Z,5.63
2017-07-09T03:26:42.805Z,5.60
2017-07-09T03:29:10.243Z,6.47
2017-07-09T03:31:37.696Z,6.07
2017-07-09T03:34:05.142Z,6.47
2017-07-09T03:36:33.356Z,7.00
2017-07-09T03:39:00.805Z,7.13
2017-07-09T03:41:28.269Z,6.80
2017-07-09T03:43:55.717Z,5.83
2017-07-09T03:46:23.169Z,5.97
2017-07-09T03:48:50.603Z,5.70
2017-07-09T03:51:18.812Z,6.80
2017-07-09T03:53:46.269Z,6.20
2017-07-09T03:56:13.716Z,6.57
2017-07-09T03:58:41.184Z,6.10
2017-07-09T04:01:08.612Z,5.60
2017-07-09T04:03:36.060Z,6.40
2017-07-09T04:06:04.271Z,6.00
2017-07-09T04:08:31.728Z,5.90
2017-07-09T04:10:59.176Z,5.93
2017-07-09T04:13:26.623Z,5.63
2017-07-09T04:15:54.064Z,6.70
2017-07-09T04:18:22.284Z,6.47
2017-07-09T04:20:49.728Z,7.30
2017-07-09T04:23:17.187Z,6.57
2017-07-09T04:25:44.639Z,7.00
2017-07-09T04:28:12.105Z,7.13
2017-07-09T04:30:39.545Z,7.20
2017-07-09T04:33:06.974Z,6.53
2017-07-09T04:35:35.200Z,7.60
2017-07-09T04:38:02.645Z,6.97
2017-07-09T04:40:30.101Z,6.47
2017-07-09T04:42:57.550Z,7.27
2017-07-09T04:45:25.001Z,6.93
2017-07-09T04:47:52.440Z,7.00
2017-07-09T04:50:20.712Z,7.10
2017-07-09T04:52:48.924Z,6.77
2017-07-09T04:55:16.386Z,6.70
2017-07-09T04:57:43.821Z,6.50
2017-07-09T05:00:11.269Z,7.07
2017-07-09T05:02:38.715Z,6.47
2017-07-09T05:05:06.952Z,6.43
2017-07-09T05:07:34.392Z,7.57
2017-07-09T05:10:01.842Z,7.00
2017-07-09T05:12:29.295Z,6.67
2017-07-09T05:14:56.739Z,7.00
2017-07-09T05:17:24.188Z,7.70
2017-07-09T05:19:51.634Z,6.40
2017-07-09T05:22:19.846Z,7.97
2017-07-09T05:24:47.297Z,8.63
2017-07-09T05:27:14.736Z,7.77
2017-07-09T05:29:42.180Z,7.73
2017-07-09T05:32:09.636Z,8.13
2017-07-09T05:34:37.080Z,7.37
2017-07-09T05:37:05.299Z,7.43
2017-07-09T05:39:32.744Z,8.10
2017-07-09T05:42:00.192Z,8.20
2017-07-09T05:44:27.640Z,8.00
2017-07-09T05:46:55.097Z,7.30
2017-07-09T05:49:22.536Z,7.30
2017-07-09T05:51:50.757Z,7.73
2017-07-09T05:54:18.196Z,7.27
2017-07-09T05:56:45.649Z,7.60
2017-07-09T05:59:13.138Z,7.97
2017-07-09T06:01:41.300Z,8.33
2017-07-09T06:04:08.760Z,8.37
2017-07-09T06:06:36.217Z,8.57
2017-07-09T06:09:03.674Z,9.07
2017-07-09T06:11:31.117Z,9.67
2017-07-09T06:13:58.568Z,8.87
2017-07-09T06:16:26.024Z,10.00
2017-07-09T06:18:53.484Z,9.27
2017-07-09T06:21:20.927Z,9.77
2017-07-09T06:23:48.383Z,10.17
2017-07-09T06:26:15.820Z,9.23
2017-07-09T06:28:44.043Z,9.20
2017-07-09T06:31:11.480Z,9.80
2017-07-09T06:33:38.956Z,7.93
2017-07-09T06:36:06.396Z,8.47
2017-07-09T06:38:33.831Z,8.40
2017-07-09T06:41:02.055Z,8.70
2017-07-09T06:43:29.492Z,7.23
2017-07-09T06:45:56.944Z,7.57
2017-07-09T06:48:27.560Z,7.50
2017-07-09T06:50:55.020Z,8.30
2017-07-09T06:53:22.469Z,7.70
2017-07-09T06:55:50.695Z,7.93
2017-07-09T06:58:18.144Z,7.00
2017-07-09T07:00:45.593Z,7.50
2017-07-09T07:03:13.031Z,7.10
2017-07-09T07:05:40.489Z,7.73
2017-07-09T07:08:07.935Z,8.23
2017-07-09T07:10:35.377Z,8.17
2017-07-09T07:13:03.607Z,10.90
2017-07-09T07:15:31.048Z,7.60
2017-07-09T07:17:58.506Z,7.63
2017-07-09T07:20:25.943Z,7.77
2017-07-09T07:22:53.399Z,7.70
2017-07-09T07:25:20.840Z,7.87
2017-07-09T07:27:49.064Z,8.10
2017-07-09T07:30:16.512Z,7.10
2017-07-09T07:32:43.965Z,6.40
2017-07-09T07:35:11.408Z,7.40
2017-07-09T07:37:38.864Z,6.53
2017-07-09T07:40:06.300Z,7.83
2017-07-09T07:42:34.527Z,8.23
2017-07-09T07:45:01.965Z,7.80
2017-07-09T07:47:29.422Z,6.80
2017-07-09T07:49:56.863Z,7.30
2017-07-09T07:52:24.337Z,7.27
2017-07-09T07:54:51.790Z,7.50
2017-07-09T07:57:19.235Z,7.60
2017-07-09T07:59:46.692Z,8.07
2017-07-09T08:02:14.127Z,7.97
2017-07-09T08:04:42.347Z,8.23
2017-07-09T08:07:09.784Z,8.10
2017-07-09T08:09:37.259Z,8.07
2017-07-09T08:12:04.699Z,7.20
2017-07-09T08:14:32.158Z,8.03
2017-07-09T08:16:59.591Z,7.90
2017-07-09T08:19:27.043Z,8.50
2017-07-09T08:21:55.252Z,7.67
2017-07-09T08:24:22.699Z,6.93
2017-07-09T08:26:50.156Z,8.27
2017-07-09T08:29:17.600Z,7.10
2017-07-09T08:31:45.058Z,7.27
2017-07-09T08:34:12.511Z,7.43
2017-07-09T08:36:39.966Z,5.87
2017-07-09T08:39:07.416Z,6.40
2017-07-09T08:41:35.666Z,6.87
2017-07-09T08:44:03.105Z,7.40
2017-07-09T08:46:30.560Z,6.60
2017-07-09T08:48:58.009Z,6.50
2017-07-09T08:51:25.491Z,6.50
2017-07-09T08:53:52.936Z,6.40
2017-07-09T08:56:20.389Z,5.70
2017-07-09T08:58:47.844Z,7.00
2017-07-09T09:01:15.292Z,6.40
2017-07-09T09:03:42.749Z,6.90
2017-07-09T09:06:10.191Z,7.80
2017-07-09T09:08:37.652Z,7.40
2017-07-09T09:11:05.100Z,6.67
2017-07-09T09:13:32.571Z,6.47
2017-07-09T09:16:00.003Z,6.17
2017-07-09T09:18:27.451Z,6.60
2017-07-09T09:20:54.892Z,7.47
2017-07-09T09:23:22.367Z,7.60
2017-07-09T09:25:49.815Z,6.20
2017-07-09T09:28:18.037Z,7.33
2017-07-09T09:30:45.496Z,6.80
2017-07-09T09:33:12.960Z,6.40
2017-07-09T09:35:40.401Z,7.70
2017-07-09T09:38:07.840Z,6.57
2017-07-09T09:40:35.308Z,6.40
2017-07-09T09:43:02.746Z,6.53
2017-07-09T09:45:30.192Z,6.27
2017-07-09T09:47:57.628Z,6.60
2017-07-09T09:50:25.084Z,6.00
2017-07-09T09:52:52.523Z,6.37
2017-07-09T09:55:19.976Z,6.17
2017-07-09T09:57:47.425Z,5.70
2017-07-09T10:00:14.892Z,6.60
2017-07-09T10:02:42.332Z,6.17
2017-07-09T10:05:09.770Z,6.10
2017-07-09T10:07:37.219Z,6.87
2017-07-09T10:10:04.659Z,7.20
2017-07-09T10:12:32.876Z,5.73
2017-07-09T10:15:00.328Z,6.20
2017-07-09T10:17:27.780Z,5.70
2017-07-09T10:19:55.225Z,5.73
2017-07-09T10:22:22.680Z,5.30
2017-07-09T10:24:50.123Z,5.33
2017-07-09T10:27:17.581Z,5.27
2017-07-09T10:29:45.020Z,5.43
2017-07-09T10:32:13.249Z,5.60
2017-07-09T10:34:40.692Z,5.30
2017-07-09T10:37:08.124Z,5.27
2017-07-09T10:39:35.588Z,4.87
2017-07-09T10:42:03.263Z,5.80
2017-07-09T10:44:30.711Z,6.30
2017-07-09T10:46:58.160Z,5.37
2017-07-09T10:49:26.373Z,5.73
2017-07-09T10:51:53.812Z,5.70
2017-07-09T10:54:21.270Z,4.87
2017-07-09T10:56:48.709Z,5.33
2017-07-09T10:59:16.163Z,5.20
2017-07-09T11:01:43.604Z,5.55
2017-07-09T11:04:11.820Z,4.70
2017-07-09T11:06:39.271Z,4.80
2017-07-09T11:09:06.733Z,4.72
2017-07-09T11:11:34.168Z,4.80
2017-07-09T11:14:01.620Z,5.22
2017-07-09T11:16:29.060Z,4.50
2017-07-09T11:18:56.501Z,4.95
2017-07-09T11:21:23.956Z,5.57
2017-07-09T11:23:51.390Z,4.90
2017-07-09T11:26:18.844Z,5.00
2017-07-09T11:28:47.051Z,5.53
2017-07-09T11:31:15.269Z,5.10
2017-07-09T11:33:42.704Z,4.90
2017-07-09T11:36:10.162Z,4.80
2017-07-09T11:38:37.597Z,5.10
2017-07-09T11:41:05.818Z,4.30
2017-07-09T11:43:33.255Z,4.25
2017-07-09T11:46:00.708Z,4.68
2017-07-09T11:48:28.152Z,4.75
2017-07-09T11:50:56.388Z,5.07
2017-07-09T11:53:23.839Z,5.60
2017-07-09T11:55:51.293Z,5.67
2017-07-09T11:58:18.748Z,5.37
2017-07-09T12:00:46.191Z,5.33
2017-07-09T12:03:13.643Z,5.27
2017-07-09T12:05:41.083Z,5.27
2017-07-09T12:08:08.536Z,4.83
2017-07-09T12:10:35.981Z,5.00
2017-07-09T12:13:04.208Z,4.63
2017-07-09T12:15:31.649Z,4.70
2017-07-09T12:17:59.108Z,5.30
2017-07-09T12:20:26.549Z,4.67
2017-07-09T12:22:54.003Z,4.97
2017-07-09T12:25:21.436Z,4.83
2017-07-09T12:27:49.659Z,4.73
2017-07-09T12:30:17.102Z,4.67
2017-07-09T12:32:44.547Z,4.53
2017-07-09T12:35:12.013Z,4.30
2017-07-09T12:37:39.452Z,4.80
2017-07-09T12:40:06.901Z,4.40
2017-07-09T12:42:35.109Z,4.50
2017-07-09T12:45:02.555Z,4.57
2017-07-09T12:47:30.001Z,3.90
2017-07-09T12:49:57.449Z,4.87
2017-07-09T12:52:24.888Z,4.68
2017-07-09T12:54:52.344Z,4.72
2017-07-09T12:57:19.788Z,3.80
2017-07-09T12:59:47.254Z,4.07
2017-07-09T13:02:14.689Z,4.07
2017-07-09T13:04:42.143Z,4.87
2017-07-09T13:07:09.584Z,3.70
2017-07-09T13:09:37.043Z,4.40
2017-07-09T13:12:04.489Z,4.78
2017-07-09T13:14:31.933Z,5.00
2017-07-09T13:16:59.385Z,5.30
2017-07-09T13:19:26.828Z,4.93
2017-07-09T13:21:55.048Z,4.20
2017-07-09T13:24:22.496Z,5.17
2017-07-09T13:26:49.939Z,4.77
2017-07-09T13:29:17.383Z,4.40
2017-07-09T13:31:44.834Z,4.57
2017-07-09T13:34:12.270Z,5.27
2017-07-09T13:36:40.491Z,4.90
2017-07-09T13:39:07.935Z,4.87
2017-07-09T13:41:35.384Z,4.93
2017-07-09T13:44:02.821Z,4.30
2017-07-09T13:46:31.042Z,4.70
2017-07-09T13:48:58.485Z,4.67
2017-07-09T13:51:25.932Z,5.20
2017-07-09T13:53:53.373Z,5.40
2017-07-09T13:56:21.581Z,5.67
2017-07-09T13:58:49.034Z,5.90
2017-07-09T14:01:16.485Z,4.78
2017-07-09T14:03:43.944Z,4.87
2017-07-09T14:06:11.390Z,5.57
2017-07-09T14:08:38.841Z,5.70
2017-07-09T14:11:06.285Z,5.47
2017-07-09T14:13:34.497Z,5.60
2017-07-09T14:16:01.956Z,6.30
2017-07-09T14:18:29.416Z,5.80
2017-07-09T14:20:56.874Z,5.43
2017-07-09T14:23:24.327Z,5.20
2017-07-09T14:25:51.768Z,5.33
2017-07-09T14:28:19.227Z,5.83
2017-07-09T14:30:46.667Z,5.13
2017-07-09T14:33:14.117Z,5.23
2017-07-09T14:35:42.335Z,5.10
2017-07-09T14:38:09.788Z,5.20
2017-07-09T14:40:37.225Z,5.65
2017-07-09T14:43:04.679Z,4.70
2017-07-09T14:45:32.125Z,5.80
2017-07-09T14:47:59.595Z,5.93
2017-07-09T14:50:27.028Z,5.60
2017-07-09T14:52:55.247Z,5.35
2017-07-09T14:55:22.692Z,5.80
2017-07-09T14:57:50.161Z,5.30
2017-07-09T15:00:17.601Z,5.37
2017-07-09T15:02:45.035Z,5.20
2017-07-09T15:05:12.484Z,6.20
2017-07-09T15:07:40.694Z,6.35
2017-07-09T15:10:08.153Z,7.20
2017-07-09T15:12:35.585Z,7.95
2017-07-09T15:15:03.043Z,6.50
2017-07-09T15:17:30.491Z,5.00
2017-07-09T15:19:58.717Z,5.50
2017-07-09T15:22:26.156Z,5.43
2017-07-09T15:24:53.613Z,5.60
2017-07-09T15:27:21.055Z,5.53
2017-07-09T15:29:48.516Z,5.53
2017-07-09T15:32:15.957Z,5.97
2017-07-09T15:34:43.405Z,5.23
2017-07-09T15:37:11.609Z,5.67
2017-07-09T15:39:39.072Z,7.77
2017-07-09T15:42:06.515Z,5.50
2017-07-09T15:44:33.967Z,5.43
2017-07-09T15:47:01.411Z,5.70
2017-07-09T15:49:35.595Z,5.40
2017-07-09T15:52:03.056Z,5.93
2017-07-09T15:54:30.493Z,5.20
2017-07-09T15:56:57.949Z,5.67
2017-07-09T15:59:25.388Z,6.00
2017-07-09T16:01:52.844Z,5.27
2017-07-09T16:04:20.299Z,5.80
2017-07-09T16:06:47.753Z,5.40
2017-07-09T16:09:15.193Z,5.90
2017-07-09T16:11:42.648Z,5.97
2017-07-09T16:14:10.088Z,5.90
2017-07-09T16:16:38.320Z,5.60
2017-07-09T16:19:05.770Z,5.90
2017-07-09T16:21:33.226Z,5.87
2017-07-09T16:24:00.659Z,5.93
2017-07-09T16:26:28.137Z,5.90
2017-07-09T16:28:55.578Z,5.53
2017-07-09T16:31:23.019Z,5.77
2017-07-09T16:33:50.472Z,6.17
2017-07-09T16:36:17.920Z,5.33
2017-07-09T16:38:46.148Z,5.90
2017-07-09T16:41:13.591Z,5.70
2017-07-09T16:43:41.041Z,6.00
2017-07-09T16:46:19.799Z,5.90
2017-07-09T16:48:47.252Z,5.87
2017-07-09T16:51:14.697Z,5.87
2017-07-09T16:53:42.155Z,6.10
2017-07-09T16:56:09.609Z,6.20
2017-07-09T16:58:37.060Z,6.00
2017-07-09T17:01:04.498Z,5.90
2017-07-09T17:03:31.960Z,6.10
2017-07-09T17:05:59.411Z,6.70
2017-07-09T17:08:26.872Z,6.10
2017-07-09T17:10:54.320Z,6.67
2017-07-09T17:13:21.782Z,5.97
2017-07-09T17:15:49.229Z,6.60
2017-07-09T17:18:16.663Z,6.00
2017-07-09T17:20:44.888Z,6.80
2017-07-09T17:23:12.331Z,6.63
2017-07-09T17:25:39.795Z,6.90
2017-07-09T17:28:07.228Z,6.37
2017-07-09T17:30:34.687Z,6.53
2017-07-09T17:33:02.124Z,6.00
2017-07-09T17:35:29.585Z,6.67
2017-07-09T17:37:57.789Z,6.80
2017-07-09T17:40:25.236Z,6.77
2017-07-09T17:42:52.684Z,6.70
2017-07-09T17:45:20.131Z,6.53
2017-07-09T17:47:47.576Z,7.40
2017-07-09T17:50:15.804Z,7.00
2017-07-09T17:52:43.248Z,6.77
2017-07-09T17:55:10.725Z,6.67
2017-07-09T17:57:38.164Z,7.10
2017-07-09T18:00:05.608Z,6.47
2017-07-09T18:02:33.064Z,6.20
2017-07-09T18:05:00.509Z,7.23
2017-07-09T18:07:27.959Z,7.60
2017-07-09T18:09:55.396Z,7.63
2017-07-09T18:12:23.612Z,8.13
2017-07-09T18:14:51.052Z,7.30
2017-07-09T18:17:18.508Z,6.80
2017-07-09T18:19:45.949Z,7.00
2017-07-09T18:22:14.183Z,7.30
2017-07-09T18:24:41.624Z,7.30
2017-07-09T18:27:09.063Z,7.53
2017-07-09T18:29:36.518Z,7.27
2017-07-09T18:32:03.959Z,7.93
2017-07-09T18:34:32.188Z,7.50
2017-07-09T18:36:59.632Z,7.83
2017-07-09T18:39:27.096Z,6.57
2017-07-09T18:41:54.528Z,6.10
2017-07-09T18:44:21.976Z,7.17
2017-07-09T18:46:49.415Z,7.00
2017-07-09T18:49:17.631Z,6.80
2017-07-09T18:51:45.088Z,6.50
2017-07-09T18:54:12.537Z,7.37
2017-07-09T18:56:39.972Z,7.80
2017-07-09T18:59:07.431Z,8.00
2017-07-09T19:01:34.876Z,6.63
2017-07-09T19:04:03.091Z,8.03
2017-07-09T19:06:30.550Z,7.70
2017-07-09T19:08:57.997Z,8.17
2017-07-09T19:11:25.440Z,8.13
2017-07-09T19:13:52.881Z,7.10
2017-07-09T19:16:20.339Z,7.67
2017-07-09T19:18:47.779Z,7.40
2017-07-09T19:21:15.229Z,6.97
2017-07-09T19:23:42.668Z,7.37
2017-07-09T19:26:10.136Z,7.20
2017-07-09T19:28:37.556Z,7.40
2017-07-09T19:31:05.006Z,7.20
2017-07-09T19:33:32.459Z,8.60
2017-07-09T19:35:59.920Z,8.77
2017-07-09T19:38:27.361Z,8.23
2017-07-09T19:40:54.807Z,9.00
2017-07-09T19:43:22.244Z,8.10
2017-07-09T19:45:50.464Z,8.40
2017-07-09T19:48:19.837Z,10.30
2017-07-09T19:50:48.051Z,8.90
2017-07-09T19:53:15.500Z,11.50
2017-07-09T19:55:42.955Z,11.03
2017-07-09T19:58:10.412Z,11.10
2017-07-09T20:00:37.869Z,11.90
2017-07-09T20:03:05.346Z,10.27
2017-07-09T20:05:32.784Z,10.17
2017-07-09T20:08:00.234Z,8.07
2017-07-09T20:10:27.680Z,8.57
2017-07-09T20:12:55.128Z,7.93
2017-07-09T20:15:22.573Z,8.80
2017-07-09T20:17:50.798Z,8.23
2017-07-09T20:20:18.242Z,8.30
2017-07-09T20:22:45.687Z,8.07
2017-07-09T20:25:13.129Z,8.00
2017-07-09T20:27:40.586Z,8.00
2017-07-09T20:30:08.021Z,9.30
2017-07-09T20:32:36.243Z,8.37
2017-07-09T20:35:03.682Z,8.70
2017-07-09T20:37:31.116Z,7.70
2017-07-09T20:39:59.329Z,7.43
2017-07-09T20:42:26.775Z,7.70
2017-07-09T20:44:54.243Z,8.40
2017-07-09T20:47:21.679Z,8.87
2017-07-09T20:49:49.140Z,8.67
2017-07-09T20:52:16.580Z,8.70
2017-07-09T20:54:44.800Z,8.50
2017-07-09T20:57:12.252Z,9.27
2017-07-09T20:59:39.712Z,9.07
2017-07-09T21:02:07.161Z,9.57
2017-07-09T21:04:34.616Z,9.07
2017-07-09T21:07:02.072Z,9.20
2017-07-09T21:09:29.513Z,10.30
2017-07-09T21:11:56.976Z,10.73
2017-07-09T21:14:24.420Z,11.13
2017-07-09T21:16:51.875Z,10.60
2017-07-09T21:19:19.319Z,11.00
2017-07-09T21:21:47.667Z,10.30
2017-07-09T21:24:15.112Z,9.83
2017-07-09T21:26:42.568Z,10.23
2017-07-09T21:29:10.008Z,9.03
2017-07-09T21:31:37.485Z,10.90
2017-07-09T21:34:04.936Z,13.30
2017-07-09T21:36:32.378Z,13.73
2017-07-09T21:38:59.838Z,13.70
2017-07-09T21:41:27.289Z,13.33
2017-07-09T21:43:54.745Z,11.53
2017-07-09T21:46:22.190Z,9.83
2017-07-09T21:48:49.644Z,8.67
2017-07-09T21:51:17.084Z,9.50
2017-07-09T21:53:44.541Z,8.80
2017-07-09T21:56:12.748Z,8.80
2017-07-09T21:58:40.204Z,9.37
2017-07-09T22:01:07.671Z,10.97
2017-07-09T22:03:35.124Z,10.90
2017-07-09T22:06:02.576Z,10.70
2017-07-09T22:08:30.036Z,10.03
2017-07-09T22:10:57.488Z,11.47
2017-07-09T22:13:24.949Z,9.40
2017-07-09T22:15:52.405Z,10.10
2017-07-09T22:18:19.860Z,9.77
2017-07-09T22:20:47.304Z,10.80
2017-07-09T22:23:14.768Z,13.37
2017-07-09T22:25:42.211Z,13.90
2017-07-09T22:28:09.671Z,16.17
2017-07-09T22:30:37.124Z,15.17
2017-07-09T22:33:04.571Z,15.00
2017-07-09T22:35:32.032Z,12.03
2017-07-09T22:37:59.484Z,12.07
2017-07-09T22:40:26.944Z,16.00
2017-07-09T22:42:54.400Z,15.80
2017-07-09T22:45:21.859Z,16.73
2017-07-09T22:47:49.299Z,15.23
2017-07-09T22:50:17.547Z,14.07
2017-07-09T22:52:44.988Z,13.90
2017-07-09T22:55:12.444Z,10.07
2017-07-09T22:57:39.892Z,10.50
2017-07-09T23:00:07.357Z,10.50
2017-07-09T23:02:34.806Z,10.00
2017-07-09T23:05:02.264Z,11.03
2017-07-09T23:07:29.714Z,12.50
2017-07-09T23:09:57.173Z,12.40
2017-07-09T23:12:24.624Z,13.10
2017-07-09T23:14:52.089Z,14.03
2017-07-09T23:17:19.549Z,14.37
2017-07-09T23:19:47.007Z,14.60
2017-07-09T23:22:14.468Z,11.23
2017-07-09T23:24:41.915Z,13.80
2017-07-09T23:27:09.365Z,14.40
2017-07-09T23:29:36.822Z,14.77
2017-07-09T23:32:04.276Z,16.73
2017-07-09T23:34:31.746Z,18.77
2017-07-09T23:36:59.225Z,19.13
2017-07-09T23:39:26.659Z,18.83
2017-07-09T23:41:54.112Z,17.60
2017-07-09T23:44:21.568Z,17.13
2017-07-09T23:49:58.991Z,17.20
2017-07-09T23:52:26.447Z,18.50
2017-07-09T23:54:53.894Z,19.20
2017-07-09T23:57:21.359Z,19.07
2017-07-09T23:59:48.808Z,17.87
